»·PEaware :: UAL1355 KCOS-KABQ

UAL1355 :: KCOS-KABQ

FLIGHT INFORMATION

Flight Status: Arrived
Operator:
United Airlines
More flights by this operator :: More flights under this callsign
Pilot: Utku A. (15598)
Aircraft: BOEING 737-300
(B733)
More flights by this aircraft type
Origin: KCOS City Of Colorado Springs Mun
United States
Destination: KABQ Albuquerque Intl Sunport
United States
More flights between these airports :: More routes between these airports
Route: +COS6 BRK V83 PUB ALS ESPAN FRIHO4
File this flight plan on PilotEdge
Remarks:
Altitude:
(Current/Filed)
34,000ft
Speed:
(Current/Filed)
428kts
Departed: 28-Jul-18 09:03 PM
Arrived: 28-Jul-18 09:53 PM
Distance/Time
Traveled:
244nm/0:49
Distance/Time
To Go:
Arrived

Flight Plot

Page will automatically refresh every two minutes.

Flight plan parsing failed; only flown route is shown


Map Options




Map Legend


Flown Route
Filed Route
Departure Airport
Arrival Airport
Navaid (VOR, NDB)
Fix

Horizontal Profiles

Position Reports

Time Latitude Longitude Heading Altitude Ground
Speed
28-Jul-18 20:42 38.799231 -104.701648 270 6102ft 0kts
28-Jul-18 20:43 38.799231 -104.701648 270 6102ft 0kts
28-Jul-18 20:44 38.799231 -104.701648 270 6102ft 0kts
28-Jul-18 20:45 38.799231 -104.701648 270 6102ft 0kts
28-Jul-18 20:46 38.799231 -104.701648 270 6102ft 0kts
28-Jul-18 20:47 38.799231 -104.701648 270 6102ft 0kts
28-Jul-18 20:48 38.799231 -104.701648 270 6102ft 0kts
28-Jul-18 20:49 38.799231 -104.701648 270 6102ft 0kts
28-Jul-18 20:50 38.799231 -104.701648 270 6102ft 0kts
28-Jul-18 20:51 38.799231 -104.701648 270 6102ft 0kts
28-Jul-18 20:52 38.799102 -104.701185 313 6102ft 2kts
28-Jul-18 20:53 38.798673 -104.700965 0 6102ft 0kts
28-Jul-18 20:54 38.798674 -104.700965 0 6102ft 0kts
28-Jul-18 20:55 38.798676 -104.700965 0 6102ft 0kts
28-Jul-18 20:56 38.799042 -104.700968 359 6102ft 2kts
28-Jul-18 20:57 38.800717 -104.700967 0 6102ft 11kts
28-Jul-18 20:58 38.803965 -104.700235 89 6102ft 10kts
28-Jul-18 20:59 38.803953 -104.695244 90 6102ft 20kts
28-Jul-18 21:00 38.803960 -104.689138 89 6102ft 2kts
28-Jul-18 21:01 38.804384 -104.687652 0 6102ft 16kts
28-Jul-18 21:02 38.810230 -104.687638 359 6102ft 22kts
28-Jul-18 21:03 38.815779 -104.687539 32 6102ft 13kts
28-Jul-18 21:04 38.810473 -104.685753 179 6102ft 73kts
28-Jul-18 21:05 38.771268 -104.685438 178 6924ft 182kts
28-Jul-18 21:06 38.716364 -104.681759 178 9365ft 205kts
28-Jul-18 21:07 38.658522 -104.675698 141 11396ft 222kts
28-Jul-18 21:08 38.600856 -104.631405 151 12676ft 280kts
28-Jul-18 21:09 38.521092 -104.577970 154 13626ft 355kts
28-Jul-18 21:10 38.429865 -104.517963 155 15809ft 381kts
28-Jul-18 21:11 38.332889 -104.457391 169 17969ft 395kts
28-Jul-18 21:12 38.241699 -104.507091 234 20067ft 374kts
28-Jul-18 21:13 38.174215 -104.609139 233 22198ft 384kts
28-Jul-18 21:14 38.104380 -104.713295 234 24109ft 393kts
28-Jul-18 21:15 38.033073 -104.819239 234 25863ft 402kts
28-Jul-18 21:16 37.959971 -104.927486 234 27501ft 410kts
28-Jul-18 21:17 37.887847 -105.033839 234 29257ft 409kts
28-Jul-18 21:18 37.814584 -105.141250 235 31114ft 401kts
28-Jul-18 21:19 37.742740 -105.246554 235 32616ft 397kts
28-Jul-18 21:20 37.671630 -105.350442 236 34095ft 388kts
28-Jul-18 21:21 37.600913 -105.453496 236 34573ft 393kts
28-Jul-18 21:22 37.529789 -105.556731 236 34561ft 391kts
28-Jul-18 21:23 37.458988 -105.659225 236 34500ft 392kts
28-Jul-18 21:24 37.387467 -105.762685 236 34500ft 403kts
28-Jul-18 21:25 37.294189 -105.842484 205 34526ft 436kts
28-Jul-18 21:26 37.188482 -105.887496 207 34507ft 431kts
28-Jul-18 21:27 37.087656 -105.932454 207 34507ft 432kts
28-Jul-18 21:28 36.974536 -105.982739 207 34510ft 433kts
28-Jul-18 21:29 36.863469 -106.031877 207 34486ft 433kts
28-Jul-18 21:30 36.750588 -106.081652 207 34472ft 435kts
28-Jul-18 21:31 36.637511 -106.131462 207 34490ft 436kts
28-Jul-18 21:32 36.523904 -106.181323 207 34450ft 434kts
28-Jul-18 21:33 36.415189 -106.228839 205 32757ft 404kts
28-Jul-18 21:34 36.313435 -106.273251 204 30542ft 378kts
28-Jul-18 21:35 36.213757 -106.316704 203 28603ft 391kts
28-Jul-18 21:36 36.111010 -106.361208 202 26736ft 398kts
28-Jul-18 21:37 36.006264 -106.406128 202 24851ft 397kts
28-Jul-18 21:38 35.904094 -106.450191 201 22963ft 387kts
28-Jul-18 21:39 35.804765 -106.492813 202 20716ft 377kts
28-Jul-18 21:40 35.708910 -106.533946 196 18752ft 357kts
28-Jul-18 21:41 35.612238 -106.575322 199 17239ft 381kts
28-Jul-18 21:42 35.515688 -106.616379 197 15758ft 362kts
28-Jul-18 21:43 35.423614 -106.655081 192 15096ft 358kts
28-Jul-18 21:44 35.332305 -106.673026 188 13840ft 317kts
28-Jul-18 21:45 35.265691 -106.724675 237 12012ft 292kts
28-Jul-18 21:46 35.222435 -106.807770 238 10232ft 290kts
28-Jul-18 21:47 35.176872 -106.887682 213 8571ft 284kts
28-Jul-18 21:48 35.106355 -106.886100 154 8054ft 244kts
28-Jul-18 21:49 35.069688 -106.823170 117 8019ft 223kts
28-Jul-18 21:50 35.045493 -106.764214 98 7673ft 166kts
28-Jul-18 21:51 35.044894 -106.710347 91 6844ft 155kts
28-Jul-18 21:52 35.044520 -106.657865 89 5963ft 155kts
28-Jul-18 21:53 35.044236 -106.608424 90 5319ft 91kts
28-Jul-18 21:54 35.045229 -106.596171 60 5325ft 8kts
28-Jul-18 21:55 35.045863 -106.597203 270 5325ft 12kts
28-Jul-18 21:56 35.045766 -106.604053 270 5322ft 21kts
28-Jul-18 21:57 35.045816 -106.611278 272 5319ft 15kts
28-Jul-18 21:58 35.045560 -106.615572 266 5314ft 7kts
28-Jul-18 21:59 35.046220 -106.616569 18 5313ft 10kts
28-Jul-18 22:00 35.046916 -106.616383 11 5312ft 0kts
28-Jul-18 22:01 35.046916 -106.616383 11 5312ft 0kts
28-Jul-18 22:02 35.046916 -106.616383 11 5312ft 0kts
28-Jul-18 22:03 35.046916 -106.616383 11 5312ft 0kts
28-Jul-18 22:04 35.046916 -106.616383 11 5312ft 0kts

Navigation Log

Ident Type
Flight plan parsing failed, navigation log unavailable